sensor_id;sensor_type;location;lat;lon;timestamp;P1;durP1;ratioP1;P2;durP2;ratioP2
22843;SDS011;11588;51.178;4.852;2023-04-15T00:01:47;9.32;;;4.38;;
22843;SDS011;11588;51.178;4.852;2023-04-15T00:04:13;11.15;;;4.50;;
22843;SDS011;11588;51.178;4.852;2023-04-15T00:06:38;8.50;;;4.25;;
22843;SDS011;11588;51.178;4.852;2023-04-15T00:09:04;7.72;;;4.38;;
22843;SDS011;11588;51.178;4.852;2023-04-15T00:11:29;14.85;;;4.40;;
22843;SDS011;11588;51.178;4.852;2023-04-15T00:13:55;8.88;;;4.40;;
22843;SDS011;11588;51.178;4.852;2023-04-15T00:16:21;8.20;;;4.50;;
22843;SDS011;11588;51.178;4.852;2023-04-15T00:18:47;7.90;;;4.43;;
22843;SDS011;11588;51.178;4.852;2023-04-15T00:21:12;9.73;;;4.50;;
22843;SDS011;11588;51.178;4.852;2023-04-15T00:23:37;6.78;;;4.25;;
22843;SDS011;11588;51.178;4.852;2023-04-15T00:26:04;11.10;;;4.82;;
22843;SDS011;11588;51.178;4.852;2023-04-15T00:28:29;7.35;;;4.07;;
22843;SDS011;11588;51.178;4.852;2023-04-15T00:30:55;8.55;;;4.45;;
22843;SDS011;11588;51.178;4.852;2023-04-15T00:33:20;8.43;;;4.88;;
22843;SDS011;11588;51.178;4.852;2023-04-15T00:35:47;9.80;;;4.90;;
22843;SDS011;11588;51.178;4.852;2023-04-15T00:38:12;8.10;;;4.75;;
22843;SDS011;11588;51.178;4.852;2023-04-15T00:40:37;10.07;;;4.93;;
22843;SDS011;11588;51.178;4.852;2023-04-15T00:43:03;11.63;;;4.90;;
22843;SDS011;11588;51.178;4.852;2023-04-15T00:45:28;10.13;;;5.05;;
22843;SDS011;11588;51.178;4.852;2023-04-15T00:47:54;9.10;;;5.07;;
22843;SDS011;11588;51.178;4.852;2023-04-15T00:50:19;9.07;;;4.90;;
22843;SDS011;11588;51.178;4.852;2023-04-15T00:52:45;7.43;;;4.45;;
22843;SDS011;11588;51.178;4.852;2023-04-15T00:55:10;8.13;;;4.55;;
22843;SDS011;11588;51.178;4.852;2023-04-15T00:57:36;12.10;;;5.07;;
22843;SDS011;11588;51.178;4.852;2023-04-15T01:00:02;9.23;;;5.32;;
22843;SDS011;11588;51.178;4.852;2023-04-15T01:02:29;9.27;;;4.97;;
22843;SDS011;11588;51.178;4.852;2023-04-15T01:04:57;9.02;;;4.93;;
22843;SDS011;11588;51.178;4.852;2023-04-15T01:07:24;13.32;;;5.32;;
22843;SDS011;11588;51.178;4.852;2023-04-15T01:09:49;8.25;;;4.80;;
22843;SDS011;11588;51.178;4.852;2023-04-15T01:12:15;14.50;;;5.40;;
22843;SDS011;11588;51.178;4.852;2023-04-15T01:14:41;8.15;;;5.38;;
22843;SDS011;11588;51.178;4.852;2023-04-15T01:17:06;9.45;;;5.22;;
22843;SDS011;11588;51.178;4.852;2023-04-15T01:19:32;11.63;;;5.22;;
22843;SDS011;11588;51.178;4.852;2023-04-15T01:21:59;11.40;;;5.40;;
22843;SDS011;11588;51.178;4.852;2023-04-15T01:24:26;8.50;;;5.07;;
22843;SDS011;11588;51.178;4.852;2023-04-15T01:26:54;14.00;;;5.32;;
22843;SDS011;11588;51.178;4.852;2023-04-15T01:29:21;11.02;;;5.13;;
22843;SDS011;11588;51.178;4.852;2023-04-15T01:31:49;14.75;;;6.00;;
22843;SDS011;11588;51.178;4.852;2023-04-15T01:34:15;7.97;;;4.85;;
22843;SDS011;11588;51.178;4.852;2023-04-15T01:36:41;10.38;;;5.13;;
22843;SDS011;11588;51.178;4.852;2023-04-15T01:39:07;13.48;;;5.10;;
22843;SDS011;11588;51.178;4.852;2023-04-15T01:41:32;7.13;;;4.88;;
22843;SDS011;11588;51.178;4.852;2023-04-15T01:43:57;9.93;;;5.40;;
22843;SDS011;11588;51.178;4.852;2023-04-15T01:46:23;12.98;;;5.30;;
22843;SDS011;11588;51.178;4.852;2023-04-15T01:48:48;14.13;;;5.72;;
22843;SDS011;11588;51.178;4.852;2023-04-15T01:51:13;10.57;;;5.20;;
22843;SDS011;11588;51.178;4.852;2023-04-15T01:53:39;9.88;;;4.88;;
22843;SDS011;11588;51.178;4.852;2023-04-15T01:56:05;12.52;;;5.10;;
22843;SDS011;11588;51.178;4.852;2023-04-15T01:58:31;10.18;;;5.00;;
22843;SDS011;11588;51.178;4.852;2023-04-15T02:00:56;9.60;;;5.18;;
22843;SDS011;11588;51.178;4.852;2023-04-15T02:03:23;8.73;;;4.85;;
22843;SDS011;11588;51.178;4.852;2023-04-15T02:05:48;8.48;;;4.97;;
22843;SDS011;11588;51.178;4.852;2023-04-15T02:08:15;9.88;;;5.03;;
22843;SDS011;11588;51.178;4.852;2023-04-15T02:10:42;9.25;;;4.90;;
22843;SDS011;11588;51.178;4.852;2023-04-15T02:13:07;10.15;;;4.68;;
22843;SDS011;11588;51.178;4.852;2023-04-15T02:15:33;9.63;;;5.03;;
22843;SDS011;11588;51.178;4.852;2023-04-15T02:17:59;8.93;;;4.88;;
22843;SDS011;11588;51.178;4.852;2023-04-15T02:20:25;10.23;;;4.80;;
22843;SDS011;11588;51.178;4.852;2023-04-15T02:22:51;10.50;;;5.38;;
22843;SDS011;11588;51.178;4.852;2023-04-15T02:25:16;10.85;;;4.63;;
22843;SDS011;11588;51.178;4.852;2023-04-15T02:27:42;9.20;;;4.75;;
22843;SDS011;11588;51.178;4.852;2023-04-15T02:30:09;8.90;;;5.30;;
22843;SDS011;11588;51.178;4.852;2023-04-15T02:32:34;10.05;;;5.38;;
22843;SDS011;11588;51.178;4.852;2023-04-15T02:35:03;7.80;;;5.10;;
22843;SDS011;11588;51.178;4.852;2023-04-15T02:37:31;8.32;;;5.00;;
22843;SDS011;11588;51.178;4.852;2023-04-15T02:39:56;11.80;;;5.70;;
22843;SDS011;11588;51.178;4.852;2023-04-15T02:42:21;8.32;;;5.18;;
22843;SDS011;11588;51.178;4.852;2023-04-15T02:44:47;11.98;;;5.93;;
22843;SDS011;11588;51.178;4.852;2023-04-15T02:47:12;9.45;;;5.30;;
22843;SDS011;11588;51.178;4.852;2023-04-15T02:49:39;11.32;;;5.93;;
22843;SDS011;11588;51.178;4.852;2023-04-15T02:52:04;11.00;;;5.43;;
22843;SDS011;11588;51.178;4.852;2023-04-15T02:54:30;10.88;;;6.05;;
22843;SDS011;11588;51.178;4.852;2023-04-15T02:56:58;9.55;;;5.85;;
22843;SDS011;11588;51.178;4.852;2023-04-15T02:59:23;11.13;;;6.05;;
22843;SDS011;11588;51.178;4.852;2023-04-15T03:01:48;12.30;;;5.97;;
22843;SDS011;11588;51.178;4.852;2023-04-15T03:04:14;12.20;;;6.18;;
22843;SDS011;11588;51.178;4.852;2023-04-15T03:06:40;14.52;;;6.47;;
22843;SDS011;11588;51.178;4.852;2023-04-15T03:09:06;11.30;;;6.40;;
22843;SDS011;11588;51.178;4.852;2023-04-15T03:11:31;10.85;;;6.47;;
22843;SDS011;11588;51.178;4.852;2023-04-15T03:13:57;10.25;;;7.15;;
22843;SDS011;11588;51.178;4.852;2023-04-15T03:16:25;12.25;;;7.28;;
22843;SDS011;11588;51.178;4.852;2023-04-15T03:18:51;12.80;;;7.07;;
22843;SDS011;11588;51.178;4.852;2023-04-15T03:21:18;13.65;;;6.47;;
22843;SDS011;11588;51.178;4.852;2023-04-15T03:23:44;12.95;;;6.70;;
22843;SDS011;11588;51.178;4.852;2023-04-15T03:26:09;10.95;;;6.57;;
22843;SDS011;11588;51.178;4.852;2023-04-15T03:28:35;12.15;;;6.95;;
22843;SDS011;11588;51.178;4.852;2023-04-15T03:31:00;10.13;;;6.30;;
22843;SDS011;11588;51.178;4.852;2023-04-15T03:33:26;14.13;;;6.88;;
22843;SDS011;11588;51.178;4.852;2023-04-15T03:35:51;10.65;;;6.28;;
22843;SDS011;11588;51.178;4.852;2023-04-15T03:38:17;10.55;;;6.68;;
22843;SDS011;11588;51.178;4.852;2023-04-15T03:40:42;9.88;;;6.72;;
22843;SDS011;11588;51.178;4.852;2023-04-15T03:43:08;11.88;;;6.68;;
22843;SDS011;11588;51.178;4.852;2023-04-15T03:45:33;11.25;;;6.45;;
22843;SDS011;11588;51.178;4.852;2023-04-15T03:47:59;8.80;;;6.20;;
22843;SDS011;11588;51.178;4.852;2023-04-15T03:50:24;10.52;;;6.32;;
22843;SDS011;11588;51.178;4.852;2023-04-15T03:52:49;11.55;;;6.25;;
22843;SDS011;11588;51.178;4.852;2023-04-15T03:55:15;12.57;;;6.97;;
22843;SDS011;11588;51.178;4.852;2023-04-15T03:57:40;13.98;;;6.40;;
22843;SDS011;11588;51.178;4.852;2023-04-15T04:00:06;13.07;;;6.68;;
22843;SDS011;11588;51.178;4.852;2023-04-15T04:02:33;15.07;;;6.50;;
22843;SDS011;11588;51.178;4.852;2023-04-15T04:04:58;12.25;;;7.35;;
22843;SDS011;11588;51.178;4.852;2023-04-15T04:07:23;10.43;;;6.45;;
22843;SDS011;11588;51.178;4.852;2023-04-15T04:09:49;11.50;;;7.10;;
22843;SDS011;11588;51.178;4.852;2023-04-15T04:12:16;12.13;;;7.03;;
22843;SDS011;11588;51.178;4.852;2023-04-15T04:14:41;11.73;;;7.78;;
22843;SDS011;11588;51.178;4.852;2023-04-15T04:17:07;13.07;;;7.40;;
22843;SDS011;11588;51.178;4.852;2023-04-15T04:19:32;13.90;;;7.50;;
22843;SDS011;11588;51.178;4.852;2023-04-15T04:21:58;14.35;;;7.70;;
22843;SDS011;11588;51.178;4.852;2023-04-15T04:24:24;12.48;;;7.70;;
22843;SDS011;11588;51.178;4.852;2023-04-15T04:26:49;14.23;;;7.45;;
22843;SDS011;11588;51.178;4.852;2023-04-15T04:29:15;12.50;;;7.45;;
22843;SDS011;11588;51.178;4.852;2023-04-15T04:31:40;14.00;;;8.02;;
22843;SDS011;11588;51.178;4.852;2023-04-15T04:34:06;16.42;;;7.68;;
22843;SDS011;11588;51.178;4.852;2023-04-15T04:36:31;10.70;;;7.47;;
22843;SDS011;11588;51.178;4.852;2023-04-15T04:38:57;14.43;;;7.93;;
22843;SDS011;11588;51.178;4.852;2023-04-15T04:41:22;12.73;;;7.93;;
22843;SDS011;11588;51.178;4.852;2023-04-15T04:43:48;14.68;;;8.13;;
22843;SDS011;11588;51.178;4.852;2023-04-15T04:46:13;13.02;;;8.43;;
22843;SDS011;11588;51.178;4.852;2023-04-15T04:48:38;12.98;;;8.20;;
22843;SDS011;11588;51.178;4.852;2023-04-15T04:51:03;14.25;;;7.82;;
22843;SDS011;11588;51.178;4.852;2023-04-15T04:53:31;13.10;;;8.65;;
22843;SDS011;11588;51.178;4.852;2023-04-15T04:55:57;19.08;;;8.55;;
22843;SDS011;11588;51.178;4.852;2023-04-15T04:58:25;14.68;;;8.63;;
22843;SDS011;11588;51.178;4.852;2023-04-15T05:00:57;14.70;;;9.18;;
22843;SDS011;11588;51.178;4.852;2023-04-15T05:03:23;16.83;;;9.48;;
22843;SDS011;11588;51.178;4.852;2023-04-15T05:05:49;12.23;;;8.85;;
22843;SDS011;11588;51.178;4.852;2023-04-15T05:08:14;13.27;;;9.45;;
22843;SDS011;11588;51.178;4.852;2023-04-15T05:10:41;12.98;;;9.18;;
22843;SDS011;11588;51.178;4.852;2023-04-15T05:13:08;15.73;;;9.55;;
22843;SDS011;11588;51.178;4.852;2023-04-15T05:15:33;16.75;;;9.30;;
22843;SDS011;11588;51.178;4.852;2023-04-15T05:18:01;16.50;;;9.93;;
22843;SDS011;11588;51.178;4.852;2023-04-15T05:20:27;15.40;;;10.32;;
22843;SDS011;11588;51.178;4.852;2023-04-15T05:22:52;15.60;;;10.75;;
22843;SDS011;11588;51.178;4.852;2023-04-15T05:25:18;18.98;;;11.75;;
22843;SDS011;11588;51.178;4.852;2023-04-15T05:27:43;15.23;;;9.52;;
22843;SDS011;11588;51.178;4.852;2023-04-15T05:30:09;14.38;;;9.93;;
22843;SDS011;11588;51.178;4.852;2023-04-15T05:32:35;16.45;;;10.65;;
22843;SDS011;11588;51.178;4.852;2023-04-15T05:35:00;16.35;;;10.68;;
22843;SDS011;11588;51.178;4.852;2023-04-15T05:37:27;17.67;;;10.63;;
22843;SDS011;11588;51.178;4.852;2023-04-15T05:39:52;17.50;;;10.60;;
22843;SDS011;11588;51.178;4.852;2023-04-15T05:42:18;16.63;;;10.70;;
22843;SDS011;11588;51.178;4.852;2023-04-15T05:44:43;16.10;;;11.30;;
22843;SDS011;11588;51.178;4.852;2023-04-15T05:47:08;17.30;;;11.48;;
22843;SDS011;11588;51.178;4.852;2023-04-15T05:49:35;18.30;;;11.43;;
22843;SDS011;11588;51.178;4.852;2023-04-15T05:52:02;23.08;;;12.45;;
22843;SDS011;11588;51.178;4.852;2023-04-15T05:54:27;20.80;;;12.50;;
22843;SDS011;11588;51.178;4.852;2023-04-15T05:56:52;18.88;;;12.50;;
22843;SDS011;11588;51.178;4.852;2023-04-15T05:59:18;22.48;;;12.68;;
22843;SDS011;11588;51.178;4.852;2023-04-15T06:01:44;19.25;;;13.52;;
22843;SDS011;11588;51.178;4.852;2023-04-15T06:04:10;20.90;;;13.60;;
22843;SDS011;11588;51.178;4.852;2023-04-15T06:06:35;19.58;;;14.30;;
22843;SDS011;11588;51.178;4.852;2023-04-15T06:09:03;18.95;;;13.55;;
22843;SDS011;11588;51.178;4.852;2023-04-15T06:11:31;21.02;;;13.52;;
22843;SDS011;11588;51.178;4.852;2023-04-15T06:13:58;20.25;;;13.52;;
22843;SDS011;11588;51.178;4.852;2023-04-15T06:16:24;21.35;;;14.43;;
22843;SDS011;11588;51.178;4.852;2023-04-15T06:18:50;18.75;;;14.18;;
22843;SDS011;11588;51.178;4.852;2023-04-15T06:21:16;22.45;;;15.05;;
22843;SDS011;11588;51.178;4.852;2023-04-15T06:23:42;17.33;;;14.18;;
22843;SDS011;11588;51.178;4.852;2023-04-15T06:26:07;22.95;;;16.05;;
22843;SDS011;11588;51.178;4.852;2023-04-15T06:28:32;20.08;;;14.98;;
22843;SDS011;11588;51.178;4.852;2023-04-15T06:30:58;21.05;;;15.45;;
22843;SDS011;11588;51.178;4.852;2023-04-15T06:33:23;19.92;;;15.20;;
22843;SDS011;11588;51.178;4.852;2023-04-15T06:35:48;19.58;;;15.50;;
22843;SDS011;11588;51.178;4.852;2023-04-15T06:38:14;19.08;;;15.57;;
22843;SDS011;11588;51.178;4.852;2023-04-15T06:40:39;21.38;;;16.05;;
22843;SDS011;11588;51.178;4.852;2023-04-15T06:43:05;28.00;;;16.58;;
22843;SDS011;11588;51.178;4.852;2023-04-15T06:45:30;21.42;;;15.50;;
22843;SDS011;11588;51.178;4.852;2023-04-15T06:47:56;21.27;;;14.90;;
22843;SDS011;11588;51.178;4.852;2023-04-15T06:50:22;20.40;;;15.15;;
22843;SDS011;11588;51.178;4.852;2023-04-15T06:52:48;19.05;;;15.55;;
22843;SDS011;11588;51.178;4.852;2023-04-15T06:55:16;19.45;;;15.27;;
22843;SDS011;11588;51.178;4.852;2023-04-15T06:57:42;22.17;;;15.75;;
22843;SDS011;11588;51.178;4.852;2023-04-15T07:00:08;18.63;;;15.23;;
22843;SDS011;11588;51.178;4.852;2023-04-15T07:02:35;19.88;;;14.75;;
22843;SDS011;11588;51.178;4.852;2023-04-15T07:05:02;19.90;;;15.18;;
22843;SDS011;11588;51.178;4.852;2023-04-15T07:07:28;18.88;;;14.48;;
22843;SDS011;11588;51.178;4.852;2023-04-15T07:09:54;18.48;;;15.23;;
22843;SDS011;11588;51.178;4.852;2023-04-15T07:12:19;17.40;;;14.00;;
22843;SDS011;11588;51.178;4.852;2023-04-15T07:14:44;16.05;;;14.05;;
22843;SDS011;11588;51.178;4.852;2023-04-15T07:17:10;17.92;;;14.38;;
22843;SDS011;11588;51.178;4.852;2023-04-15T07:19:36;19.77;;;14.77;;
22843;SDS011;11588;51.178;4.852;2023-04-15T07:22:01;23.17;;;14.77;;
22843;SDS011;11588;51.178;4.852;2023-04-15T07:24:26;21.13;;;14.68;;
22843;SDS011;11588;51.178;4.852;2023-04-15T07:26:53;16.02;;;13.48;;
22843;SDS011;11588;51.178;4.852;2023-04-15T07:29:21;18.92;;;13.50;;
22843;SDS011;11588;51.178;4.852;2023-04-15T07:31:47;17.52;;;13.38;;
22843;SDS011;11588;51.178;4.852;2023-04-15T07:34:12;19.75;;;13.18;;
22843;SDS011;11588;51.178;4.852;2023-04-15T07:36:37;17.25;;;12.20;;
22843;SDS011;11588;51.178;4.852;2023-04-15T07:39:03;19.08;;;12.55;;
22843;SDS011;11588;51.178;4.852;2023-04-15T07:41:28;15.38;;;12.05;;
22843;SDS011;11588;51.178;4.852;2023-04-15T07:46:20;18.90;;;12.02;;
22843;SDS011;11588;51.178;4.852;2023-04-15T07:48:48;15.02;;;12.00;;
22843;SDS011;11588;51.178;4.852;2023-04-15T07:51:14;18.00;;;12.52;;
22843;SDS011;11588;51.178;4.852;2023-04-15T07:53:40;18.40;;;12.48;;
22843;SDS011;11588;51.178;4.852;2023-04-15T07:56:06;15.00;;;11.98;;
22843;SDS011;11588;51.178;4.852;2023-04-15T07:58:31;17.83;;;11.68;;
22843;SDS011;11588;51.178;4.852;2023-04-15T08:00:57;17.95;;;12.23;;
22843;SDS011;11588;51.178;4.852;2023-04-15T08:03:22;16.95;;;11.13;;
22843;SDS011;11588;51.178;4.852;2023-04-15T08:05:48;16.25;;;12.25;;
22843;SDS011;11588;51.178;4.852;2023-04-15T08:08:14;16.58;;;11.25;;
22843;SDS011;11588;51.178;4.852;2023-04-15T08:10:39;13.57;;;10.95;;
22843;SDS011;11588;51.178;4.852;2023-04-15T08:13:05;16.40;;;12.25;;
22843;SDS011;11588;51.178;4.852;2023-04-15T08:15:30;17.08;;;12.32;;
22843;SDS011;11588;51.178;4.852;2023-04-15T08:17:57;17.20;;;11.38;;
22843;SDS011;11588;51.178;4.852;2023-04-15T08:20:24;14.40;;;10.77;;
22843;SDS011;11588;51.178;4.852;2023-04-15T08:22:50;14.80;;;10.88;;
22843;SDS011;11588;51.178;4.852;2023-04-15T08:25:16;14.65;;;10.70;;
22843;SDS011;11588;51.178;4.852;2023-04-15T08:27:42;14.55;;;10.90;;
22843;SDS011;11588;51.178;4.852;2023-04-15T08:30:07;16.50;;;9.98;;
22843;SDS011;11588;51.178;4.852;2023-04-15T08:32:33;14.50;;;10.05;;
22843;SDS011;11588;51.178;4.852;2023-04-15T08:34:58;11.55;;;9.20;;
22843;SDS011;11588;51.178;4.852;2023-04-15T08:37:24;11.18;;;8.93;;
22843;SDS011;11588;51.178;4.852;2023-04-15T08:39:50;10.48;;;8.15;;
22843;SDS011;11588;51.178;4.852;2023-04-15T08:42:16;12.15;;;9.07;;
22843;SDS011;11588;51.178;4.852;2023-04-15T08:44:43;11.43;;;9.73;;
22843;SDS011;11588;51.178;4.852;2023-04-15T08:47:11;12.68;;;9.93;;
22843;SDS011;11588;51.178;4.852;2023-04-15T08:49:39;12.77;;;9.77;;
22843;SDS011;11588;51.178;4.852;2023-04-15T08:52:05;12.73;;;9.35;;
22843;SDS011;11588;51.178;4.852;2023-04-15T08:54:30;10.57;;;8.00;;
22843;SDS011;11588;51.178;4.852;2023-04-15T08:56:57;10.98;;;8.55;;
22843;SDS011;11588;51.178;4.852;2023-04-15T08:59:23;12.00;;;8.77;;
22843;SDS011;11588;51.178;4.852;2023-04-15T09:01:49;13.68;;;9.20;;
22843;SDS011;11588;51.178;4.852;2023-04-15T09:04:15;9.98;;;8.38;;
22843;SDS011;11588;51.178;4.852;2023-04-15T09:06:41;9.98;;;8.43;;
22843;SDS011;11588;51.178;4.852;2023-04-15T09:09:06;11.70;;;8.32;;
22843;SDS011;11588;51.178;4.852;2023-04-15T09:11:32;11.20;;;8.98;;
22843;SDS011;11588;51.178;4.852;2023-04-15T09:13:57;10.55;;;7.82;;
22843;SDS011;11588;51.178;4.852;2023-04-15T09:16:23;10.43;;;7.90;;
22843;SDS011;11588;51.178;4.852;2023-04-15T09:18:48;11.40;;;7.03;;
22843;SDS011;11588;51.178;4.852;2023-04-15T09:21:15;8.82;;;6.80;;
22843;SDS011;11588;51.178;4.852;2023-04-15T09:23:41;9.48;;;6.85;;
22843;SDS011;11588;51.178;4.852;2023-04-15T09:26:17;10.65;;;6.30;;
22843;SDS011;11588;51.178;4.852;2023-04-15T09:28:43;9.02;;;6.32;;
22843;SDS011;11588;51.178;4.852;2023-04-15T09:31:08;10.40;;;7.30;;
22843;SDS011;11588;51.178;4.852;2023-04-15T09:33:34;9.18;;;6.55;;
22843;SDS011;11588;51.178;4.852;2023-04-15T09:36:01;8.38;;;5.65;;
22843;SDS011;11588;51.178;4.852;2023-04-15T09:38:28;8.48;;;5.43;;
22843;SDS011;11588;51.178;4.852;2023-04-15T09:40:53;7.85;;;5.55;;
22843;SDS011;11588;51.178;4.852;2023-04-15T09:43:19;7.75;;;5.38;;
22843;SDS011;11588;51.178;4.852;2023-04-15T09:45:47;5.93;;;4.82;;
22843;SDS011;11588;51.178;4.852;2023-04-15T09:48:15;6.30;;;4.63;;
22843;SDS011;11588;51.178;4.852;2023-04-15T09:50:41;6.80;;;4.50;;
22843;SDS011;11588;51.178;4.852;2023-04-15T09:53:09;6.25;;;4.38;;
22843;SDS011;11588;51.178;4.852;2023-04-15T09:55:35;6.72;;;5.15;;
22843;SDS011;11588;51.178;4.852;2023-04-15T09:58:01;7.60;;;5.85;;
22843;SDS011;11588;51.178;4.852;2023-04-15T10:00:28;6.22;;;5.32;;
22843;SDS011;11588;51.178;4.852;2023-04-15T10:02:53;8.88;;;4.93;;
22843;SDS011;11588;51.178;4.852;2023-04-15T10:05:19;5.70;;;4.70;;
22843;SDS011;11588;51.178;4.852;2023-04-15T10:07:46;7.85;;;4.47;;
22843;SDS011;11588;51.178;4.852;2023-04-15T10:10:12;6.40;;;5.53;;
22843;SDS011;11588;51.178;4.852;2023-04-15T10:12:39;6.03;;;5.20;;
22843;SDS011;11588;51.178;4.852;2023-04-15T10:15:07;8.57;;;5.53;;
22843;SDS011;11588;51.178;4.852;2023-04-15T10:17:35;7.57;;;5.32;;
22843;SDS011;11588;51.178;4.852;2023-04-15T10:20:02;9.68;;;5.55;;
22843;SDS011;11588;51.178;4.852;2023-04-15T10:22:29;6.13;;;5.40;;
22843;SDS011;11588;51.178;4.852;2023-04-15T10:24:55;6.18;;;5.18;;
22843;SDS011;11588;51.178;4.852;2023-04-15T10:27:21;6.60;;;4.72;;
22843;SDS011;11588;51.178;4.852;2023-04-15T10:29:48;7.60;;;4.97;;
22843;SDS011;11588;51.178;4.852;2023-04-15T10:32:17;4.57;;;3.65;;
22843;SDS011;11588;51.178;4.852;2023-04-15T10:34:43;4.45;;;3.08;;
22843;SDS011;11588;51.178;4.852;2023-04-15T10:37:09;4.50;;;3.53;;
22843;SDS011;11588;51.178;4.852;2023-04-15T10:39:37;4.35;;;3.60;;
22843;SDS011;11588;51.178;4.852;2023-04-15T10:42:06;5.85;;;4.15;;
22843;SDS011;11588;51.178;4.852;2023-04-15T10:44:32;6.32;;;4.68;;
22843;SDS011;11588;51.178;4.852;2023-04-15T10:46:57;5.38;;;4.82;;
22843;SDS011;11588;51.178;4.852;2023-04-15T10:49:24;4.78;;;4.25;;
22843;SDS011;11588;51.178;4.852;2023-04-15T10:51:52;5.93;;;4.80;;
22843;SDS011;11588;51.178;4.852;2023-04-15T10:56:51;5.68;;;5.07;;
22843;SDS011;11588;51.178;4.852;2023-04-15T10:59:32;7.15;;;5.90;;
22843;SDS011;11588;51.178;4.852;2023-04-15T11:02:02;5.10;;;4.60;;
22843;SDS011;11588;51.178;4.852;2023-04-15T11:09:35;6.63;;;4.80;;
22843;SDS011;11588;51.178;4.852;2023-04-15T11:14:36;6.28;;;4.13;;
22843;SDS011;11588;51.178;4.852;2023-04-15T11:17:04;8.55;;;5.15;;
22843;SDS011;11588;51.178;4.852;2023-04-15T11:22:06;4.90;;;4.40;;
22843;SDS011;11588;51.178;4.852;2023-04-15T11:24:31;7.13;;;4.35;;
22843;SDS011;11588;51.178;4.852;2023-04-15T11:26:59;5.43;;;4.03;;
22843;SDS011;11588;51.178;4.852;2023-04-15T11:29:29;4.47;;;3.95;;
22843;SDS011;11588;51.178;4.852;2023-04-15T11:34:32;6.18;;;4.00;;
22843;SDS011;11588;51.178;4.852;2023-04-15T11:36:57;5.00;;;3.33;;
22843;SDS011;11588;51.178;4.852;2023-04-15T11:39:23;5.43;;;3.50;;
22843;SDS011;11588;51.178;4.852;2023-04-15T11:41:50;5.78;;;3.42;;
22843;SDS011;11588;51.178;4.852;2023-04-15T11:44:16;7.05;;;3.53;;
22843;SDS011;11588;51.178;4.852;2023-04-15T11:46:42;8.23;;;3.05;;
22843;SDS011;11588;51.178;4.852;2023-04-15T11:49:07;6.72;;;3.33;;
22843;SDS011;11588;51.178;4.852;2023-04-15T11:51:32;5.60;;;3.28;;
22843;SDS011;11588;51.178;4.852;2023-04-15T11:53:58;6.55;;;3.72;;
22843;SDS011;11588;51.178;4.852;2023-04-15T11:56:24;5.20;;;4.70;;
22843;SDS011;11588;51.178;4.852;2023-04-15T11:58:51;6.88;;;4.65;;
22843;SDS011;11588;51.178;4.852;2023-04-15T12:01:17;7.93;;;4.40;;
22843;SDS011;11588;51.178;4.852;2023-04-15T12:03:44;8.75;;;4.90;;
22843;SDS011;11588;51.178;4.852;2023-04-15T12:06:11;5.32;;;4.45;;
22843;SDS011;11588;51.178;4.852;2023-04-15T12:11:10;6.03;;;4.10;;
22843;SDS011;11588;51.178;4.852;2023-04-15T12:13:36;5.93;;;3.70;;
22843;SDS011;11588;51.178;4.852;2023-04-15T12:16:02;5.40;;;3.00;;
22843;SDS011;11588;51.178;4.852;2023-04-15T12:18:27;5.53;;;2.55;;
22843;SDS011;11588;51.178;4.852;2023-04-15T12:20:53;6.47;;;2.42;;
22843;SDS011;11588;51.178;4.852;2023-04-15T12:23:18;4.80;;;2.53;;
22843;SDS011;11588;51.178;4.852;2023-04-15T12:25:50;6.22;;;2.83;;
22843;SDS011;11588;51.178;4.852;2023-04-15T12:28:16;4.40;;;2.85;;
22843;SDS011;11588;51.178;4.852;2023-04-15T12:33:15;5.15;;;3.00;;
22843;SDS011;11588;51.178;4.852;2023-04-15T12:35:41;3.83;;;2.53;;
22843;SDS011;11588;51.178;4.852;2023-04-15T12:38:06;5.47;;;2.65;;
22843;SDS011;11588;51.178;4.852;2023-04-15T12:40:34;3.00;;;2.33;;
22843;SDS011;11588;51.178;4.852;2023-04-15T12:42:59;2.70;;;2.17;;
22843;SDS011;11588;51.178;4.852;2023-04-15T12:45:25;4.85;;;1.88;;
22843;SDS011;11588;51.178;4.852;2023-04-15T12:47:51;3.42;;;2.63;;
22843;SDS011;11588;51.178;4.852;2023-04-15T12:50:17;5.88;;;2.40;;
22843;SDS011;11588;51.178;4.852;2023-04-15T12:52:44;4.68;;;2.40;;
22843;SDS011;11588;51.178;4.852;2023-04-15T12:55:09;4.85;;;2.42;;
22843;SDS011;11588;51.178;4.852;2023-04-15T12:57:36;6.18;;;3.00;;
22843;SDS011;11588;51.178;4.852;2023-04-15T13:00:01;4.60;;;2.53;;
22843;SDS011;11588;51.178;4.852;2023-04-15T13:02:28;4.82;;;2.90;;
22843;SDS011;11588;51.178;4.852;2023-04-15T13:04:54;5.55;;;3.30;;
22843;SDS011;11588;51.178;4.852;2023-04-15T13:07:19;5.93;;;3.20;;
22843;SDS011;11588;51.178;4.852;2023-04-15T13:09:45;5.53;;;3.13;;
22843;SDS011;11588;51.178;4.852;2023-04-15T13:12:10;5.32;;;3.67;;
22843;SDS011;11588;51.178;4.852;2023-04-15T13:14:37;7.10;;;3.10;;
22843;SDS011;11588;51.178;4.852;2023-04-15T13:17:03;4.63;;;2.30;;
22843;SDS011;11588;51.178;4.852;2023-04-15T13:22:01;3.95;;;1.60;;
22843;SDS011;11588;51.178;4.852;2023-04-15T13:24:29;4.55;;;1.45;;
22843;SDS011;11588;51.178;4.852;2023-04-15T13:26:54;2.20;;;1.10;;
22843;SDS011;11588;51.178;4.852;2023-04-15T13:29:23;2.78;;;1.38;;
22843;SDS011;11588;51.178;4.852;2023-04-15T13:31:49;3.97;;;1.02;;
22843;SDS011;11588;51.178;4.852;2023-04-15T13:34:14;3.10;;;1.10;;
22843;SDS011;11588;51.178;4.852;2023-04-15T13:36:41;3.83;;;1.00;;
22843;SDS011;11588;51.178;4.852;2023-04-15T13:39:06;2.58;;;1.10;;
22843;SDS011;11588;51.178;4.852;2023-04-15T13:41:33;2.80;;;1.42;;
22843;SDS011;11588;51.178;4.852;2023-04-15T13:43:58;2.50;;;1.50;;
22843;SDS011;11588;51.178;4.852;2023-04-15T13:46:24;3.22;;;1.23;;
22843;SDS011;11588;51.178;4.852;2023-04-15T13:48:50;2.80;;;1.90;;
22843;SDS011;11588;51.178;4.852;2023-04-15T13:51:16;2.20;;;1.73;;
22843;SDS011;11588;51.178;4.852;2023-04-15T13:53:42;5.20;;;2.20;;
22843;SDS011;11588;51.178;4.852;2023-04-15T13:56:07;2.72;;;1.90;;
22843;SDS011;11588;51.178;4.852;2023-04-15T13:58:33;3.60;;;1.90;;
22843;SDS011;11588;51.178;4.852;2023-04-15T14:00:59;3.28;;;1.70;;
22843;SDS011;11588;51.178;4.852;2023-04-15T14:03:24;2.65;;;2.10;;
22843;SDS011;11588;51.178;4.852;2023-04-15T14:05:49;3.25;;;2.08;;
22843;SDS011;11588;51.178;4.852;2023-04-15T14:08:20;4.70;;;2.53;;
22843;SDS011;11588;51.178;4.852;2023-04-15T14:10:46;5.47;;;2.50;;
22843;SDS011;11588;51.178;4.852;2023-04-15T14:13:13;5.07;;;2.63;;
22843;SDS011;11588;51.178;4.852;2023-04-15T14:15:39;4.45;;;2.63;;
22843;SDS011;11588;51.178;4.852;2023-04-15T14:18:05;4.22;;;2.22;;
22843;SDS011;11588;51.178;4.852;2023-04-15T14:20:31;5.63;;;2.60;;
22843;SDS011;11588;51.178;4.852;2023-04-15T14:22:56;6.70;;;3.45;;
22843;SDS011;11588;51.178;4.852;2023-04-15T14:25:22;5.38;;;2.95;;
22843;SDS011;11588;51.178;4.852;2023-04-15T14:27:48;6.50;;;2.63;;
22843;SDS011;11588;51.178;4.852;2023-04-15T14:30:14;4.50;;;2.63;;
22843;SDS011;11588;51.178;4.852;2023-04-15T14:32:39;4.60;;;3.00;;
22843;SDS011;11588;51.178;4.852;2023-04-15T14:35:05;5.88;;;2.88;;
22843;SDS011;11588;51.178;4.852;2023-04-15T14:37:30;4.55;;;2.47;;
22843;SDS011;11588;51.178;4.852;2023-04-15T14:39:56;4.95;;;2.15;;
22843;SDS011;11588;51.178;4.852;2023-04-15T14:42:21;5.20;;;2.10;;
22843;SDS011;11588;51.178;4.852;2023-04-15T14:44:52;4.47;;;2.38;;
22843;SDS011;11588;51.178;4.852;2023-04-15T14:47:18;3.25;;;2.17;;
22843;SDS011;11588;51.178;4.852;2023-04-15T14:49:44;3.92;;;2.15;;
22843;SDS011;11588;51.178;4.852;2023-04-15T14:52:09;4.90;;;1.80;;
22843;SDS011;11588;51.178;4.852;2023-04-15T14:54:35;4.25;;;2.30;;
22843;SDS011;11588;51.178;4.852;2023-04-15T14:57:00;4.15;;;2.20;;